sensor_id;sensor_type;location;lat;lon;timestamp;P1;durP1;ratioP1;P2;durP2;ratioP2
68126;SDS011;54931;52.098;21.006;2023-08-06T00:01:37;49.50;;;20.90;;
68126;SDS011;54931;52.098;21.006;2023-08-06T00:04:04;49.70;;;20.00;;
68126;SDS011;54931;52.098;21.006;2023-08-06T00:06:32;54.40;;;21.90;;
68126;SDS011;54931;52.098;21.006;2023-08-06T00:08:59;62.70;;;23.10;;
68126;SDS011;54931;52.098;21.006;2023-08-06T00:11:27;59.90;;;21.80;;
68126;SDS011;54931;52.098;21.006;2023-08-06T00:13:55;57.60;;;21.70;;
68126;SDS011;54931;52.098;21.006;2023-08-06T00:16:23;55.40;;;22.20;;
68126;SDS011;54931;52.098;21.006;2023-08-06T00:18:50;58.20;;;22.20;;
68126;SDS011;54931;52.098;21.006;2023-08-06T00:21:18;58.10;;;21.80;;
68126;SDS011;54931;52.098;21.006;2023-08-06T00:23:46;61.90;;;23.10;;
68126;SDS011;54931;52.098;21.006;2023-08-06T00:26:13;53.80;;;21.20;;
68126;SDS011;54931;52.098;21.006;2023-08-06T00:28:41;51.60;;;21.10;;
68126;SDS011;54931;52.098;21.006;2023-08-06T00:31:08;54.90;;;21.80;;
68126;SDS011;54931;52.098;21.006;2023-08-06T00:33:36;41.60;;;19.40;;
68126;SDS011;54931;52.098;21.006;2023-08-06T00:36:03;44.90;;;20.20;;
68126;SDS011;54931;52.098;21.006;2023-08-06T00:38:31;45.80;;;19.40;;
68126;SDS011;54931;52.098;21.006;2023-08-06T00:40:59;45.80;;;19.60;;
68126;SDS011;54931;52.098;21.006;2023-08-06T00:43:26;45.00;;;19.30;;
68126;SDS011;54931;52.098;21.006;2023-08-06T00:45:54;39.80;;;18.30;;
68126;SDS011;54931;52.098;21.006;2023-08-06T00:48:23;37.60;;;17.80;;
68126;SDS011;54931;52.098;21.006;2023-08-06T00:50:50;36.90;;;17.50;;
68126;SDS011;54931;52.098;21.006;2023-08-06T00:53:18;39.30;;;18.90;;
68126;SDS011;54931;52.098;21.006;2023-08-06T00:55:46;33.60;;;17.00;;
68126;SDS011;54931;52.098;21.006;2023-08-06T00:58:14;35.40;;;16.60;;
68126;SDS011;54931;52.098;21.006;2023-08-06T01:00:43;32.40;;;16.80;;
68126;SDS011;54931;52.098;21.006;2023-08-06T01:03:10;34.00;;;17.40;;
68126;SDS011;54931;52.098;21.006;2023-08-06T01:05:38;31.20;;;16.10;;
68126;SDS011;54931;52.098;21.006;2023-08-06T01:11:33;31.90;;;16.10;;
68126;SDS011;54931;52.098;21.006;2023-08-06T01:14:17;30.10;;;15.60;;
68126;SDS011;54931;52.098;21.006;2023-08-06T01:16:50;30.30;;;15.90;;
68126;SDS011;54931;52.098;21.006;2023-08-06T01:19:19;30.00;;;17.10;;
68126;SDS011;54931;52.098;21.006;2023-08-06T01:21:47;28.70;;;14.90;;
68126;SDS011;54931;52.098;21.006;2023-08-06T01:24:15;29.90;;;15.10;;
68126;SDS011;54931;52.098;21.006;2023-08-06T01:26:51;32.00;;;16.40;;
68126;SDS011;54931;52.098;21.006;2023-08-06T01:29:50;29.80;;;15.90;;
68126;SDS011;54931;52.098;21.006;2023-08-06T01:32:26;31.40;;;15.20;;
68126;SDS011;54931;52.098;21.006;2023-08-06T01:34:55;33.70;;;16.10;;
68126;SDS011;54931;52.098;21.006;2023-08-06T01:37:24;32.20;;;16.40;;
68126;SDS011;54931;52.098;21.006;2023-08-06T01:39:52;31.00;;;16.30;;
68126;SDS011;54931;52.098;21.006;2023-08-06T01:42:20;31.40;;;15.00;;
68126;SDS011;54931;52.098;21.006;2023-08-06T01:44:47;32.60;;;16.20;;
68126;SDS011;54931;52.098;21.006;2023-08-06T01:47:15;25.40;;;14.40;;
68126;SDS011;54931;52.098;21.006;2023-08-06T01:49:43;28.10;;;15.60;;
68126;SDS011;54931;52.098;21.006;2023-08-06T01:52:10;29.10;;;15.70;;
68126;SDS011;54931;52.098;21.006;2023-08-06T01:54:37;26.10;;;14.90;;
68126;SDS011;54931;52.098;21.006;2023-08-06T01:57:05;32.50;;;14.60;;
68126;SDS011;54931;52.098;21.006;2023-08-06T01:59:33;25.80;;;14.40;;
68126;SDS011;54931;52.098;21.006;2023-08-06T02:02:01;27.70;;;15.20;;
68126;SDS011;54931;52.098;21.006;2023-08-06T02:04:28;29.00;;;15.30;;
68126;SDS011;54931;52.098;21.006;2023-08-06T02:06:56;29.70;;;16.60;;
68126;SDS011;54931;52.098;21.006;2023-08-06T02:09:23;27.60;;;16.60;;
68126;SDS011;54931;52.098;21.006;2023-08-06T02:11:51;27.30;;;15.40;;
68126;SDS011;54931;52.098;21.006;2023-08-06T02:14:18;29.50;;;15.90;;
68126;SDS011;54931;52.098;21.006;2023-08-06T02:16:46;37.80;;;18.50;;
68126;SDS011;54931;52.098;21.006;2023-08-06T02:19:13;37.20;;;17.90;;
68126;SDS011;54931;52.098;21.006;2023-08-06T02:21:40;36.60;;;18.20;;
68126;SDS011;54931;52.098;21.006;2023-08-06T02:24:08;31.70;;;18.20;;
68126;SDS011;54931;52.098;21.006;2023-08-06T02:26:35;33.70;;;17.60;;
68126;SDS011;54931;52.098;21.006;2023-08-06T02:29:03;27.30;;;15.60;;
68126;SDS011;54931;52.098;21.006;2023-08-06T02:31:30;33.90;;;16.00;;
68126;SDS011;54931;52.098;21.006;2023-08-06T02:33:58;28.30;;;15.00;;
68126;SDS011;54931;52.098;21.006;2023-08-06T02:36:26;24.30;;;14.10;;
68126;SDS011;54931;52.098;21.006;2023-08-06T02:38:56;25.50;;;14.20;;
68126;SDS011;54931;52.098;21.006;2023-08-06T02:41:23;26.20;;;14.70;;
68126;SDS011;54931;52.098;21.006;2023-08-06T02:43:52;30.70;;;14.50;;
68126;SDS011;54931;52.098;21.006;2023-08-06T02:46:20;25.20;;;14.10;;
68126;SDS011;54931;52.098;21.006;2023-08-06T02:48:47;27.00;;;14.70;;
68126;SDS011;54931;52.098;21.006;2023-08-06T02:51:15;32.80;;;16.20;;
68126;SDS011;54931;52.098;21.006;2023-08-06T02:53:42;25.30;;;14.30;;
68126;SDS011;54931;52.098;21.006;2023-08-06T02:56:10;31.10;;;14.80;;
68126;SDS011;54931;52.098;21.006;2023-08-06T02:58:38;27.30;;;14.80;;
68126;SDS011;54931;52.098;21.006;2023-08-06T03:01:06;27.10;;;14.50;;
68126;SDS011;54931;52.098;21.006;2023-08-06T03:03:34;34.60;;;16.40;;
68126;SDS011;54931;52.098;21.006;2023-08-06T03:06:02;29.40;;;14.50;;
68126;SDS011;54931;52.098;21.006;2023-08-06T03:08:30;29.40;;;14.80;;
68126;SDS011;54931;52.098;21.006;2023-08-06T03:10:58;36.70;;;17.00;;
68126;SDS011;54931;52.098;21.006;2023-08-06T03:13:25;32.50;;;16.10;;
68126;SDS011;54931;52.098;21.006;2023-08-06T03:18:25;31.50;;;15.50;;
68126;SDS011;54931;52.098;21.006;2023-08-06T03:20:53;30.70;;;15.90;;
68126;SDS011;54931;52.098;21.006;2023-08-06T03:23:21;29.90;;;16.30;;
68126;SDS011;54931;52.098;21.006;2023-08-06T03:25:48;37.20;;;18.00;;
68126;SDS011;54931;52.098;21.006;2023-08-06T03:28:16;31.50;;;16.80;;
68126;SDS011;54931;52.098;21.006;2023-08-06T03:30:43;36.50;;;18.40;;
68126;SDS011;54931;52.098;21.006;2023-08-06T03:33:11;33.80;;;17.00;;
68126;SDS011;54931;52.098;21.006;2023-08-06T03:35:39;30.90;;;16.00;;
68126;SDS011;54931;52.098;21.006;2023-08-06T03:38:07;34.50;;;17.60;;
68126;SDS011;54931;52.098;21.006;2023-08-06T03:40:35;37.20;;;18.30;;
68126;SDS011;54931;52.098;21.006;2023-08-06T03:43:03;34.00;;;17.90;;
68126;SDS011;54931;52.098;21.006;2023-08-06T03:45:31;34.00;;;17.30;;
68126;SDS011;54931;52.098;21.006;2023-08-06T03:47:59;33.00;;;17.80;;
68126;SDS011;54931;52.098;21.006;2023-08-06T03:50:27;35.10;;;18.40;;
68126;SDS011;54931;52.098;21.006;2023-08-06T03:52:54;33.70;;;17.60;;
68126;SDS011;54931;52.098;21.006;2023-08-06T03:55:22;35.90;;;17.00;;
68126;SDS011;54931;52.098;21.006;2023-08-06T03:57:49;34.50;;;18.10;;
68126;SDS011;54931;52.098;21.006;2023-08-06T04:00:17;35.00;;;18.20;;
68126;SDS011;54931;52.098;21.006;2023-08-06T04:02:45;38.60;;;19.00;;
68126;SDS011;54931;52.098;21.006;2023-08-06T04:05:13;33.40;;;17.30;;
68126;SDS011;54931;52.098;21.006;2023-08-06T04:07:41;33.90;;;16.80;;
68126;SDS011;54931;52.098;21.006;2023-08-06T04:10:09;30.80;;;17.00;;
68126;SDS011;54931;52.098;21.006;2023-08-06T04:12:37;34.50;;;17.70;;
68126;SDS011;54931;52.098;21.006;2023-08-06T04:15:06;38.90;;;18.60;;
68126;SDS011;54931;52.098;21.006;2023-08-06T04:17:34;34.30;;;17.70;;
68126;SDS011;54931;52.098;21.006;2023-08-06T04:20:02;33.40;;;17.30;;
68126;SDS011;54931;52.098;21.006;2023-08-06T04:22:31;30.50;;;17.40;;
68126;SDS011;54931;52.098;21.006;2023-08-06T04:24:58;32.80;;;18.10;;
68126;SDS011;54931;52.098;21.006;2023-08-06T04:27:25;33.70;;;18.50;;
68126;SDS011;54931;52.098;21.006;2023-08-06T04:29:54;30.80;;;18.20;;
68126;SDS011;54931;52.098;21.006;2023-08-06T04:32:21;32.20;;;18.30;;
68126;SDS011;54931;52.098;21.006;2023-08-06T04:34:49;29.50;;;16.90;;
68126;SDS011;54931;52.098;21.006;2023-08-06T04:37:17;25.60;;;15.20;;
68126;SDS011;54931;52.098;21.006;2023-08-06T04:39:44;30.60;;;17.80;;
68126;SDS011;54931;52.098;21.006;2023-08-06T04:42:12;26.70;;;16.20;;
68126;SDS011;54931;52.098;21.006;2023-08-06T04:44:40;27.90;;;17.10;;
68126;SDS011;54931;52.098;21.006;2023-08-06T04:47:08;29.20;;;17.50;;
68126;SDS011;54931;52.098;21.006;2023-08-06T04:49:36;29.80;;;18.70;;
68126;SDS011;54931;52.098;21.006;2023-08-06T04:52:03;26.30;;;17.70;;
68126;SDS011;54931;52.098;21.006;2023-08-06T04:54:31;30.40;;;18.60;;
68126;SDS011;54931;52.098;21.006;2023-08-06T04:56:59;29.10;;;17.70;;
68126;SDS011;54931;52.098;21.006;2023-08-06T04:59:27;31.00;;;19.00;;
68126;SDS011;54931;52.098;21.006;2023-08-06T05:01:55;28.10;;;18.00;;
68126;SDS011;54931;52.098;21.006;2023-08-06T05:04:23;29.40;;;18.40;;
68126;SDS011;54931;52.098;21.006;2023-08-06T05:06:50;23.90;;;16.80;;
68126;SDS011;54931;52.098;21.006;2023-08-06T05:09:17;26.40;;;17.50;;
68126;SDS011;54931;52.098;21.006;2023-08-06T05:11:46;25.40;;;16.90;;
68126;SDS011;54931;52.098;21.006;2023-08-06T05:14:14;21.30;;;15.80;;
68126;SDS011;54931;52.098;21.006;2023-08-06T05:16:42;21.40;;;15.30;;
68126;SDS011;54931;52.098;21.006;2023-08-06T05:19:09;22.10;;;16.00;;
68126;SDS011;54931;52.098;21.006;2023-08-06T05:21:36;24.20;;;15.70;;
68126;SDS011;54931;52.098;21.006;2023-08-06T05:24:04;21.20;;;15.40;;
68126;SDS011;54931;52.098;21.006;2023-08-06T05:26:31;19.60;;;14.60;;
68126;SDS011;54931;52.098;21.006;2023-08-06T05:28:59;18.40;;;14.50;;
68126;SDS011;54931;52.098;21.006;2023-08-06T05:31:27;17.40;;;13.50;;
68126;SDS011;54931;52.098;21.006;2023-08-06T05:33:56;18.80;;;14.20;;
68126;SDS011;54931;52.098;21.006;2023-08-06T05:36:23;17.00;;;13.10;;
68126;SDS011;54931;52.098;21.006;2023-08-06T05:38:51;17.70;;;12.50;;
68126;SDS011;54931;52.098;21.006;2023-08-06T05:41:18;20.40;;;13.20;;
68126;SDS011;54931;52.098;21.006;2023-08-06T05:43:46;14.70;;;11.90;;
68126;SDS011;54931;52.098;21.006;2023-08-06T05:46:14;14.80;;;12.20;;
68126;SDS011;54931;52.098;21.006;2023-08-06T05:48:41;17.20;;;12.00;;
68126;SDS011;54931;52.098;21.006;2023-08-06T05:51:09;14.50;;;11.80;;
68126;SDS011;54931;52.098;21.006;2023-08-06T05:53:39;17.90;;;11.50;;
68126;SDS011;54931;52.098;21.006;2023-08-06T05:56:07;16.30;;;11.60;;
68126;SDS011;54931;52.098;21.006;2023-08-06T05:58:34;14.00;;;10.90;;
68126;SDS011;54931;52.098;21.006;2023-08-06T06:01:03;14.70;;;10.50;;
68126;SDS011;54931;52.098;21.006;2023-08-06T06:03:30;17.20;;;10.20;;
68126;SDS011;54931;52.098;21.006;2023-08-06T06:06:00;14.30;;;10.50;;
68126;SDS011;54931;52.098;21.006;2023-08-06T06:08:29;12.40;;;9.60;;
68126;SDS011;54931;52.098;21.006;2023-08-06T06:10:56;12.60;;;10.40;;
68126;SDS011;54931;52.098;21.006;2023-08-06T06:13:24;14.10;;;10.50;;
68126;SDS011;54931;52.098;21.006;2023-08-06T06:15:54;13.40;;;9.70;;
68126;SDS011;54931;52.098;21.006;2023-08-06T06:18:23;16.00;;;10.20;;
68126;SDS011;54931;52.098;21.006;2023-08-06T06:20:50;13.60;;;10.50;;
68126;SDS011;54931;52.098;21.006;2023-08-06T06:23:18;15.20;;;9.80;;
68126;SDS011;54931;52.098;21.006;2023-08-06T06:25:49;18.30;;;10.40;;
68126;SDS011;54931;52.098;21.006;2023-08-06T06:28:20;13.80;;;10.40;;
68126;SDS011;54931;52.098;21.006;2023-08-06T06:30:47;14.10;;;10.40;;
68126;SDS011;54931;52.098;21.006;2023-08-06T06:33:15;12.70;;;9.70;;
68126;SDS011;54931;52.098;21.006;2023-08-06T06:35:43;13.20;;;9.70;;
68126;SDS011;54931;52.098;21.006;2023-08-06T06:38:10;11.10;;;9.80;;
68126;SDS011;54931;52.098;21.006;2023-08-06T06:40:37;14.90;;;10.00;;
68126;SDS011;54931;52.098;21.006;2023-08-06T06:43:06;15.00;;;9.90;;
68126;SDS011;54931;52.098;21.006;2023-08-06T06:45:33;12.60;;;10.10;;
68126;SDS011;54931;52.098;21.006;2023-08-06T06:48:01;17.10;;;10.00;;
68126;SDS011;54931;52.098;21.006;2023-08-06T06:50:29;11.60;;;9.50;;
68126;SDS011;54931;52.098;21.006;2023-08-06T06:52:56;13.30;;;8.90;;
68126;SDS011;54931;52.098;21.006;2023-08-06T06:55:24;11.00;;;9.10;;
68126;SDS011;54931;52.098;21.006;2023-08-06T06:57:52;15.30;;;9.60;;
68126;SDS011;54931;52.098;21.006;2023-08-06T07:00:19;11.70;;;9.40;;
68126;SDS011;54931;52.098;21.006;2023-08-06T07:02:46;13.00;;;9.40;;
68126;SDS011;54931;52.098;21.006;2023-08-06T07:05:14;13.10;;;9.00;;
68126;SDS011;54931;52.098;21.006;2023-08-06T07:07:42;11.70;;;9.90;;
68126;SDS011;54931;52.098;21.006;2023-08-06T07:10:09;15.40;;;9.30;;
68126;SDS011;54931;52.098;21.006;2023-08-06T07:12:37;13.30;;;9.80;;
68126;SDS011;54931;52.098;21.006;2023-08-06T07:15:09;16.70;;;9.30;;
68126;SDS011;54931;52.098;21.006;2023-08-06T07:17:37;14.70;;;10.10;;
68126;SDS011;54931;52.098;21.006;2023-08-06T07:20:05;15.10;;;9.40;;
68126;SDS011;54931;52.098;21.006;2023-08-06T07:22:33;13.40;;;9.50;;
68126;SDS011;54931;52.098;21.006;2023-08-06T07:25:01;12.30;;;9.30;;
68126;SDS011;54931;52.098;21.006;2023-08-06T07:27:30;12.10;;;10.10;;
68126;SDS011;54931;52.098;21.006;2023-08-06T07:29:58;15.50;;;9.50;;
68126;SDS011;54931;52.098;21.006;2023-08-06T07:32:26;14.60;;;9.80;;
68126;SDS011;54931;52.098;21.006;2023-08-06T07:34:55;14.80;;;9.20;;
68126;SDS011;54931;52.098;21.006;2023-08-06T07:37:27;14.00;;;8.90;;
68126;SDS011;54931;52.098;21.006;2023-08-06T07:39:56;15.60;;;9.10;;
68126;SDS011;54931;52.098;21.006;2023-08-06T07:42:24;12.70;;;9.30;;
68126;SDS011;54931;52.098;21.006;2023-08-06T07:44:54;16.60;;;9.10;;
68126;SDS011;54931;52.098;21.006;2023-08-06T07:47:23;15.80;;;9.50;;
68126;SDS011;54931;52.098;21.006;2023-08-06T07:49:53;16.50;;;9.60;;
68126;SDS011;54931;52.098;21.006;2023-08-06T07:52:22;17.10;;;9.60;;
68126;SDS011;54931;52.098;21.006;2023-08-06T07:54:50;11.10;;;9.70;;
68126;SDS011;54931;52.098;21.006;2023-08-06T07:57:19;15.70;;;9.50;;
68126;SDS011;54931;52.098;21.006;2023-08-06T07:59:46;13.30;;;10.20;;
68126;SDS011;54931;52.098;21.006;2023-08-06T08:02:14;12.10;;;9.70;;
68126;SDS011;54931;52.098;21.006;2023-08-06T08:04:41;11.30;;;8.90;;
68126;SDS011;54931;52.098;21.006;2023-08-06T08:07:09;14.00;;;8.90;;
68126;SDS011;54931;52.098;21.006;2023-08-06T08:09:37;10.60;;;9.30;;
68126;SDS011;54931;52.098;21.006;2023-08-06T08:12:05;11.50;;;8.70;;
68126;SDS011;54931;52.098;21.006;2023-08-06T08:14:33;13.20;;;9.00;;
68126;SDS011;54931;52.098;21.006;2023-08-06T08:17:04;10.30;;;8.00;;
68126;SDS011;54931;52.098;21.006;2023-08-06T08:19:33;13.50;;;8.90;;
68126;SDS011;54931;52.098;21.006;2023-08-06T08:22:01;13.40;;;8.50;;
68126;SDS011;54931;52.098;21.006;2023-08-06T08:24:29;13.10;;;8.70;;
68126;SDS011;54931;52.098;21.006;2023-08-06T08:26:58;13.10;;;9.30;;
68126;SDS011;54931;52.098;21.006;2023-08-06T08:29:27;12.20;;;8.50;;
68126;SDS011;54931;52.098;21.006;2023-08-06T08:31:56;9.90;;;7.90;;
68126;SDS011;54931;52.098;21.006;2023-08-06T08:34:23;11.20;;;8.10;;
68126;SDS011;54931;52.098;21.006;2023-08-06T08:36:51;11.00;;;8.40;;
68126;SDS011;54931;52.098;21.006;2023-08-06T08:39:19;11.50;;;8.90;;
68126;SDS011;54931;52.098;21.006;2023-08-06T08:41:47;10.10;;;7.90;;
68126;SDS011;54931;52.098;21.006;2023-08-06T08:44:16;15.10;;;8.60;;
68126;SDS011;54931;52.098;21.006;2023-08-06T08:46:47;10.10;;;8.40;;
68126;SDS011;54931;52.098;21.006;2023-08-06T08:49:17;13.40;;;8.50;;
68126;SDS011;54931;52.098;21.006;2023-08-06T08:51:46;11.10;;;8.50;;
68126;SDS011;54931;52.098;21.006;2023-08-06T08:54:17;10.70;;;8.20;;
68126;SDS011;54931;52.098;21.006;2023-08-06T08:56:47;11.10;;;7.80;;
68126;SDS011;54931;52.098;21.006;2023-08-06T08:59:18;12.80;;;8.40;;
68126;SDS011;54931;52.098;21.006;2023-08-06T09:01:46;10.00;;;7.60;;
68126;SDS011;54931;52.098;21.006;2023-08-06T09:04:18;10.40;;;8.30;;
68126;SDS011;54931;52.098;21.006;2023-08-06T09:06:51;11.60;;;8.00;;
68126;SDS011;54931;52.098;21.006;2023-08-06T09:09:31;11.40;;;8.20;;
68126;SDS011;54931;52.098;21.006;2023-08-06T09:12:01;12.60;;;7.90;;
68126;SDS011;54931;52.098;21.006;2023-08-06T09:14:32;12.50;;;7.30;;
68126;SDS011;54931;52.098;21.006;2023-08-06T09:17:01;10.40;;;7.40;;
68126;SDS011;54931;52.098;21.006;2023-08-06T09:19:28;14.20;;;8.00;;
68126;SDS011;54931;52.098;21.006;2023-08-06T09:21:56;10.00;;;7.90;;
68126;SDS011;54931;52.098;21.006;2023-08-06T09:24:25;11.50;;;7.80;;
68126;SDS011;54931;52.098;21.006;2023-08-06T09:26:56;10.40;;;7.80;;
68126;SDS011;54931;52.098;21.006;2023-08-06T09:29:30;10.90;;;7.50;;
68126;SDS011;54931;52.098;21.006;2023-08-06T09:32:00;11.10;;;7.80;;
68126;SDS011;54931;52.098;21.006;2023-08-06T09:34:27;10.40;;;8.10;;
68126;SDS011;54931;52.098;21.006;2023-08-06T09:36:55;8.80;;;7.00;;
68126;SDS011;54931;52.098;21.006;2023-08-06T09:39:29;10.90;;;7.40;;
68126;SDS011;54931;52.098;21.006;2023-08-06T09:42:00;9.70;;;7.20;;
68126;SDS011;54931;52.098;21.006;2023-08-06T09:44:30;8.90;;;7.60;;
68126;SDS011;54931;52.098;21.006;2023-08-06T09:47:01;14.10;;;7.10;;
68126;SDS011;54931;52.098;21.006;2023-08-06T09:52:10;9.50;;;7.20;;
68126;SDS011;54931;52.098;21.006;2023-08-06T09:54:39;10.60;;;6.90;;
68126;SDS011;54931;52.098;21.006;2023-08-06T09:57:12;10.60;;;6.70;;
68126;SDS011;54931;52.098;21.006;2023-08-06T09:59:42;11.10;;;6.80;;
68126;SDS011;54931;52.098;21.006;2023-08-06T10:02:12;7.70;;;6.50;;
68126;SDS011;54931;52.098;21.006;2023-08-06T10:04:44;8.40;;;5.80;;
68126;SDS011;54931;52.098;21.006;2023-08-06T10:07:14;8.00;;;6.60;;
68126;SDS011;54931;52.098;21.006;2023-08-06T10:09:42;9.50;;;6.30;;
68126;SDS011;54931;52.098;21.006;2023-08-06T10:12:10;9.80;;;6.50;;
68126;SDS011;54931;52.098;21.006;2023-08-06T10:14:39;8.10;;;7.00;;
68126;SDS011;54931;52.098;21.006;2023-08-06T10:17:09;10.70;;;6.60;;
68126;SDS011;54931;52.098;21.006;2023-08-06T10:19:37;7.10;;;6.00;;
68126;SDS011;54931;52.098;21.006;2023-08-06T10:24:52;10.70;;;6.80;;
68126;SDS011;54931;52.098;21.006;2023-08-06T10:27:34;8.30;;;6.50;;
68126;SDS011;54931;52.098;21.006;2023-08-06T10:32:59;8.50;;;6.10;;
68126;SDS011;54931;52.098;21.006;2023-08-06T10:35:46;9.60;;;7.00;;
68126;SDS011;54931;52.098;21.006;2023-08-06T10:38:22;11.80;;;7.10;;
68126;SDS011;54931;52.098;21.006;2023-08-06T10:43:29;7.70;;;6.60;;
68126;SDS011;54931;52.098;21.006;2023-08-06T10:46:09;9.20;;;6.70;;
68126;SDS011;54931;52.098;21.006;2023-08-06T10:48:39;11.40;;;6.80;;
68126;SDS011;54931;52.098;21.006;2023-08-06T10:51:09;7.90;;;6.60;;
68126;SDS011;54931;52.098;21.006;2023-08-06T10:53:41;9.90;;;6.00;;
68126;SDS011;54931;52.098;21.006;2023-08-06T10:56:21;8.90;;;6.40;;
68126;SDS011;54931;52.098;21.006;2023-08-06T10:58:51;9.60;;;6.90;;
68126;SDS011;54931;52.098;21.006;2023-08-06T11:01:22;8.30;;;6.40;;
68126;SDS011;54931;52.098;21.006;2023-08-06T11:03:51;12.80;;;7.20;;
68126;SDS011;54931;52.098;21.006;2023-08-06T11:06:21;8.90;;;7.00;;
68126;SDS011;54931;52.098;21.006;2023-08-06T11:08:53;9.20;;;6.30;;
68126;SDS011;54931;52.098;21.006;2023-08-06T11:11:23;10.90;;;6.70;;
68126;SDS011;54931;52.098;21.006;2023-08-06T11:13:51;7.60;;;6.40;;
68126;SDS011;54931;52.098;21.006;2023-08-06T11:16:21;6.70;;;6.00;;
68126;SDS011;54931;52.098;21.006;2023-08-06T11:18:52;6.90;;;6.20;;
68126;SDS011;54931;52.098;21.006;2023-08-06T11:21:21;8.40;;;6.30;;
68126;SDS011;54931;52.098;21.006;2023-08-06T11:23:51;7.40;;;6.40;;
68126;SDS011;54931;52.098;21.006;2023-08-06T11:26:20;9.20;;;6.20;;
68126;SDS011;54931;52.098;21.006;2023-08-06T11:28:50;8.30;;;5.80;;
68126;SDS011;54931;52.098;21.006;2023-08-06T11:31:23;9.50;;;6.10;;
68126;SDS011;54931;52.098;21.006;2023-08-06T11:33:54;9.40;;;6.40;;
68126;SDS011;54931;52.098;21.006;2023-08-06T11:36:37;10.20;;;6.80;;
68126;SDS011;54931;52.098;21.006;2023-08-06T11:39:09;9.50;;;6.60;;
68126;SDS011;54931;52.098;21.006;2023-08-06T11:41:36;6.70;;;5.70;;
68126;SDS011;54931;52.098;21.006;2023-08-06T11:44:10;7.10;;;6.10;;
68126;SDS011;54931;52.098;21.006;2023-08-06T11:46:55;9.00;;;5.40;;
68126;SDS011;54931;52.098;21.006;2023-08-06T11:49:46;7.90;;;6.40;;
68126;SDS011;54931;52.098;21.006;2023-08-06T11:52:22;6.50;;;5.60;;
68126;SDS011;54931;52.098;21.006;2023-08-06T12:00:10;9.20;;;6.10;;
68126;SDS011;54931;52.098;21.006;2023-08-06T12:02:41;9.50;;;6.10;;
68126;SDS011;54931;52.098;21.006;2023-08-06T12:07:41;8.80;;;6.10;;
68126;SDS011;54931;52.098;21.006;2023-08-06T12:10:12;7.80;;;5.60;;
68126;SDS011;54931;52.098;21.006;2023-08-06T12:12:41;7.80;;;5.70;;
68126;SDS011;54931;52.098;21.006;2023-08-06T12:15:10;5.70;;;4.70;;
68126;SDS011;54931;52.098;21.006;2023-08-06T12:17:38;8.70;;;5.90;;
68126;SDS011;54931;52.098;21.006;2023-08-06T12:20:07;12.50;;;5.60;;
68126;SDS011;54931;52.098;21.006;2023-08-06T12:22:36;8.60;;;5.50;;
68126;SDS011;54931;52.098;21.006;2023-08-06T12:25:09;9.90;;;5.00;;
68126;SDS011;54931;52.098;21.006;2023-08-06T12:30:11;6.20;;;4.90;;
68126;SDS011;54931;52.098;21.006;2023-08-06T12:32:40;8.40;;;5.70;;
68126;SDS011;54931;52.098;21.006;2023-08-06T12:35:08;9.70;;;5.70;;
68126;SDS011;54931;52.098;21.006;2023-08-06T12:37:36;6.50;;;5.80;;
68126;SDS011;54931;52.098;21.006;2023-08-06T12:40:06;8.90;;;5.80;;
68126;SDS011;54931;52.098;21.006;2023-08-06T12:42:34;8.90;;;5.90;;
68126;SDS011;54931;52.098;21.006;2023-08-06T12:45:02;7.70;;;5.50;;
68126;SDS011;54931;52.098;21.006;2023-08-06T12:47:31;11.60;;;6.20;;
68126;SDS011;54931;52.098;21.006;2023-08-06T12:49:58;12.90;;;6.60;;
68126;SDS011;54931;52.098;21.006;2023-08-06T12:52:26;7.30;;;5.70;;
68126;SDS011;54931;52.098;21.006;2023-08-06T12:54:53;8.30;;;6.20;;
68126;SDS011;54931;52.098;21.006;2023-08-06T12:57:21;6.70;;;5.70;;
68126;SDS011;54931;52.098;21.006;2023-08-06T12:59:49;8.90;;;5.90;;
68126;SDS011;54931;52.098;21.006;2023-08-06T13:02:17;7.60;;;6.40;;
68126;SDS011;54931;52.098;21.006;2023-08-06T13:04:46;9.90;;;6.10;;
68126;SDS011;54931;52.098;21.006;2023-08-06T13:07:21;7.60;;;5.50;;
68126;SDS011;54931;52.098;21.006;2023-08-06T13:09:50;6.70;;;5.20;;
68126;SDS011;54931;52.098;21.006;2023-08-06T13:12:20;8.40;;;5.20;;
68126;SDS011;54931;52.098;21.006;2023-08-06T13:14:52;7.40;;;5.50;;
68126;SDS011;54931;52.098;21.006;2023-08-06T13:17:21;6.90;;;5.40;;
68126;SDS011;54931;52.098;21.006;2023-08-06T13:19:49;6.50;;;4.90;;
68126;SDS011;54931;52.098;21.006;2023-08-06T13:22:19;7.40;;;5.10;;
68126;SDS011;54931;52.098;21.006;2023-08-06T13:24:49;5.60;;;5.00;;
68126;SDS011;54931;52.098;21.006;2023-08-06T13:27:18;7.20;;;5.70;;
68126;SDS011;54931;52.098;21.006;2023-08-06T13:29:50;7.70;;;5.70;;
68126;SDS011;54931;52.098;21.006;2023-08-06T13:32:20;7.10;;;6.10;;
68126;SDS011;54931;52.098;21.006;2023-08-06T13:34:48;9.20;;;5.90;;
68126;SDS011;54931;52.098;21.006;2023-08-06T13:37:16;7.20;;;5.50;;
68126;SDS011;54931;52.098;21.006;2023-08-06T13:39:44;10.70;;;6.40;;
68126;SDS011;54931;52.098;21.006;2023-08-06T13:42:13;7.00;;;5.70;;
68126;SDS011;54931;52.098;21.006;2023-08-06T13:44:44;10.50;;;6.30;;
68126;SDS011;54931;52.098;21.006;2023-08-06T13:47:14;7.70;;;5.90;;
68126;SDS011;54931;52.098;21.006;2023-08-06T13:49:42;6.70;;;5.70;;
68126;SDS011;54931;52.098;21.006;2023-08-06T13:52:17;7.10;;;5.40;;
68126;SDS011;54931;52.098;21.006;2023-08-06T13:54:45;7.50;;;5.40;;
68126;SDS011;54931;52.098;21.006;2023-08-06T13:57:13;6.80;;;5.40;;
68126;SDS011;54931;52.098;21.006;2023-08-06T13:59:41;8.30;;;5.70;;
68126;SDS011;54931;52.098;21.006;2023-08-06T14:02:11;7.70;;;5.50;;
68126;SDS011;54931;52.098;21.006;2023-08-06T14:04:39;6.80;;;5.50;;
68126;SDS011;54931;52.098;21.006;2023-08-06T14:07:08;8.50;;;5.70;;
68126;SDS011;54931;52.098;21.006;2023-08-06T14:09:37;5.70;;;5.10;;
68126;SDS011;54931;52.098;21.006;2023-08-06T14:12:06;6.80;;;5.60;;
68126;SDS011;54931;52.098;21.006;2023-08-06T14:14:34;6.70;;;5.50;;
68126;SDS011;54931;52.098;21.006;2023-08-06T14:17:02;5.90;;;4.90;;
68126;SDS011;54931;52.098;21.006;2023-08-06T14:19:30;6.20;;;4.70;;
68126;SDS011;54931;52.098;21.006;2023-08-06T14:21:58;5.10;;;4.50;;
68126;SDS011;54931;52.098;21.006;2023-08-06T14:24:27;6.30;;;4.70;;
68126;SDS011;54931;52.098;21.006;2023-08-06T14:26:59;5.90;;;4.30;;
68126;SDS011;54931;52.098;21.006;2023-08-06T14:29:27;5.50;;;5.00;;
68126;SDS011;54931;52.098;21.006;2023-08-06T14:31:55;4.80;;;4.20;;
68126;SDS011;54931;52.098;21.006;2023-08-06T14:34:24;12.00;;;4.40;;
68126;SDS011;54931;52.098;21.006;2023-08-06T14:36:54;6.00;;;4.80;;
68126;SDS011;54931;52.098;21.006;2023-08-06T14:39:23;5.30;;;4.60;;
68126;SDS011;54931;52.098;21.006;2023-08-06T14:41:56;6.60;;;4.50;;
68126;SDS011;54931;52.098;21.006;2023-08-06T14:44:25;7.00;;;4.90;;
68126;SDS011;54931;52.098;21.006;2023-08-06T14:46:53;7.00;;;4.60;;
68126;SDS011;54931;52.098;21.006;2023-08-06T14:49:22;6.70;;;3.70;;
68126;SDS011;54931;52.098;21.006;2023-08-06T14:51:53;3.90;;;3.10;;
68126;SDS011;54931;52.098;21.006;2023-08-06T14:54:23;5.10;;;3.10;;
68126;SDS011;54931;52.098;21.006;2023-08-06T14:56:51;3.70;;;2.60;;